Time;durP1;ratioP1;P1;durP2;ratioP2;P2;SDS_P1;SDS_P2;PMS_P1;PMS_P2;Temp;Humidity;BMP_temperature;BMP_pressure;BME280_temperature;BME280_humidity;BME280_pressure;Samples;Min_cycle;Max_cycle;Signal;HPM_P1;HPM_P2
2022/06/04 00:00:47;;;;;;;9.02;4.93;;;;;;;18.66;100.00;98900.81;4485735;32;20511;-75
2022/06/04 00:03:16;;;;;;;7.97;4.97;;;;;;;18.73;100.00;98901.72;4485723;31;20092;-76
2022/06/04 00:05:45;;;;;;;6.75;5.20;;;;;;;18.65;100.00;98897.31;4485458;31;20107;-75
2022/06/04 00:08:13;;;;;;;6.95;5.43;;;;;;;18.70;100.00;98894.09;4485286;31;20149;-76
2022/06/04 00:16:17;;;;;;;12.15;6.65;;;;;;;18.62;100.00;98863.19;4485403;31;20533;-75
2022/06/04 00:18:44;;;;;;;7.22;5.32;;;;;;;18.58;100.00;98861.94;4485381;31;20556;-75
2022/06/04 00:21:15;;;;;;;7.43;5.15;;;;;;;18.55;100.00;98847.22;4485507;32;20085;-75
2022/06/04 00:23:42;;;;;;;7.10;5.50;;;;;;;18.53;100.00;98843.94;4485355;31;20114;-75
2022/06/04 00:26:13;;;;;;;9.38;5.40;;;;;;;18.50;100.00;98846.12;4485549;31;20547;-75
2022/06/04 00:28:41;;;;;;;7.37;5.20;;;;;;;18.47;100.00;98857.94;4485333;31;20089;-74
2022/06/04 00:31:09;;;;;;;8.68;5.57;;;;;;;18.46;100.00;98855.47;4480279;31;20089;-74
2022/06/04 00:33:36;;;;;;;7.03;5.53;;;;;;;18.51;100.00;98859.19;4469731;32;20510;-74
2022/06/04 00:36:05;;;;;;;7.65;5.82;;;;;;;18.55;100.00;98843.75;4469713;32;20116;-74
2022/06/04 00:38:33;;;;;;;8.25;5.50;;;;;;;18.54;100.00;98858.81;4467995;32;20141;-74
2022/06/04 00:41:11;;;;;;;7.55;4.57;;;;;;;18.54;100.00;98858.81;4469753;32;20104;-74
2022/06/04 00:44:25;;;;;;;6.22;4.80;;;;;;;18.53;100.00;98854.53;4468542;32;20129;-74
2022/06/04 00:47:18;;;;;;;5.18;4.18;;;;;;;18.59;100.00;98853.78;4469459;32;20111;-74
2022/06/04 00:49:46;;;;;;;4.55;4.05;;;;;;;18.58;100.00;98843.37;4468311;32;20088;-75
2022/06/04 00:52:14;;;;;;;7.20;3.97;;;;;;;18.53;100.00;98835.13;4469724;32;20093;-74
2022/06/04 00:54:42;;;;;;;8.13;4.50;;;;;;;18.48;100.00;98838.34;4468269;32;20142;-75
2022/06/04 00:57:39;;;;;;;7.15;4.35;;;;;;;18.50;100.00;98825.72;4469543;32;20494;-75
2022/06/04 01:00:09;;;;;;;6.65;4.40;;;;;;;18.52;100.00;98815.75;4469264;32;20080;-75
2022/06/04 01:02:58;;;;;;;7.35;4.18;;;;;;;18.48;100.00;98811.81;4469491;32;20115;-75
2022/06/04 01:05:40;;;;;;;8.15;4.10;;;;;;;18.48;100.00;98797.75;4469573;32;20481;-75
2022/06/04 01:08:25;;;;;;;5.10;4.12;;;;;;;18.50;100.00;98790.41;4469598;32;20179;-75
2022/06/04 01:10:55;;;;;;;7.55;4.60;;;;;;;18.48;100.00;98790.59;4467909;32;20065;-75
2022/06/04 01:14:01;;;;;;;9.95;4.80;;;;;;;18.43;100.00;98787.69;4469435;32;20104;-75
2022/06/04 01:16:38;;;;;;;8.77;5.03;;;;;;;18.39;100.00;98781.13;4420341;32;20106;-74
2022/06/04 01:19:11;;;;;;;7.72;5.07;;;;;;;18.25;100.00;98770.34;4420496;32;20112;-75
2022/06/04 01:22:16;;;;;;;12.73;6.18;;;;;;;18.18;100.00;98769.47;4420351;32;20121;-75
2022/06/04 01:24:57;;;;;;;9.98;6.47;;;;;;;18.18;100.00;98772.13;4359832;32;20187;-75
2022/06/04 01:27:45;;;;;;;11.60;6.32;;;;;;;18.16;100.00;98768.00;4359964;32;20197;-75
2022/06/04 01:30:17;;;;;;;13.50;6.78;;;;;;;18.17;100.00;98772.28;4359569;32;20150;-75
2022/06/04 01:32:51;;;;;;;10.27;7.00;;;;;;;18.13;100.00;98777.16;4389585;32;20086;-75
2022/06/04 01:35:34;;;;;;;11.43;6.40;;;;;;;18.08;100.00;98779.53;4389889;32;20157;-75
2022/06/04 01:38:16;;;;;;;10.52;6.50;;;;;;;18.11;100.00;98795.06;4376718;32;20533;-75
2022/06/04 01:41:04;;;;;;;8.95;6.47;;;;;;;18.12;100.00;98796.69;4389696;32;20472;-75
2022/06/04 01:43:52;;;;;;;12.48;6.60;;;;;;;18.14;100.00;98809.78;4389658;32;20168;-75
2022/06/04 01:46:24;;;;;;;9.48;6.65;;;;;;;18.17;100.00;98814.72;4377242;32;20168;-75
2022/06/04 01:48:54;;;;;;;11.27;6.43;;;;;;;18.20;100.00;98815.19;4377217;32;20471;-75
2022/06/04 01:51:24;;;;;;;10.15;5.80;;;;;;;18.25;100.00;98819.91;4389844;32;20156;-75
2022/06/04 01:54:14;;;;;;;9.05;5.87;;;;;;;18.27;100.00;98817.91;4407060;32;20692;-75
2022/06/04 01:56:46;;;;;;;8.50;4.60;;;;;;;18.29;100.00;98799.16;4389549;32;20164;-75
2022/06/04 01:59:18;;;;;;;10.30;5.55;;;;;;;18.35;100.00;98798.41;4376895;32;20102;-75
2022/06/04 02:01:47;;;;;;;7.53;5.40;;;;;;;18.38;100.00;98796.22;4416089;32;20116;-75
2022/06/04 02:04:17;;;;;;;8.35;5.10;;;;;;;18.38;100.00;98792.72;4437789;32;20123;-75
2022/06/04 02:09:43;;;;;;;7.60;3.80;;;;;;;18.47;100.00;98788.97;4439888;32;20127;-74
2022/06/04 02:12:11;;;;;;;7.40;4.20;;;;;;;18.47;100.00;98785.47;4437839;32;20447;-75
2022/06/04 02:14:39;;;;;;;8.10;3.90;;;;;;;18.48;100.00;98790.59;4450438;32;20124;-75
2022/06/04 02:17:10;;;;;;;3.80;3.20;;;;;;;18.52;100.00;98786.56;4437771;32;20143;-75
2022/06/04 02:19:37;;;;;;;7.05;3.37;;;;;;;18.64;100.00;98776.28;4437573;32;20113;-75
2022/06/04 02:22:04;;;;;;;9.50;3.80;;;;;;;18.77;100.00;98773.75;4450163;32;20121;-75
2022/06/04 02:24:32;;;;;;;8.32;3.60;;;;;;;18.76;100.00;98776.59;4450390;32;20152;-75
2022/06/04 02:27:01;;;;;;;6.57;3.55;;;;;;;18.79;100.00;98776.22;4450475;32;20198;-75
2022/06/04 02:29:28;;;;;;;10.45;4.12;;;;;;;18.62;100.00;98770.31;4450248;32;20132;-75
2022/06/04 02:32:09;;;;;;;6.82;4.40;;;;;;;18.60;100.00;98767.06;4459962;32;20115;-75
2022/06/04 02:34:55;;;;;;;7.70;5.25;;;;;;;18.72;100.00;98778.00;4480070;32;20107;-75
2022/06/04 02:37:41;;;;;;;10.38;4.62;;;;;;;18.63;100.00;98769.31;4484001;31;20108;-75
2022/06/04 02:40:08;;;;;;;8.55;4.87;;;;;;;18.58;100.00;98771.72;4483870;31;20076;-75
2022/06/04 02:42:54;;;;;;;5.85;3.97;;;;;;;18.53;100.00;98774.94;4483718;31;20179;-75
2022/06/04 02:45:28;;;;;;;9.77;5.03;;;;;;;18.59;100.00;98781.31;4483829;31;20073;-75
2022/06/04 02:48:00;;;;;;;10.85;4.43;;;;;;;18.60;100.00;98770.50;4483910;31;20440;-75
2022/06/04 02:50:35;;;;;;;8.88;4.10;;;;;;;18.50;100.00;98767.38;4484184;32;20450;-75
2022/06/04 02:53:04;;;;;;;6.78;4.35;;;;;;;18.51;100.00;98768.19;4484676;32;20088;-75
2022/06/04 02:56:01;;;;;;;10.13;5.03;;;;;;;18.41;100.00;98757.88;4486045;31;20351;-75
2022/06/04 02:58:30;;;;;;;9.65;4.80;;;;;;;18.18;100.00;98748.25;4408644;32;20878;-75
2022/06/04 03:00:58;;;;;;;7.72;4.80;;;;;;;18.16;100.00;98749.44;4408641;32;20121;-75
2022/06/04 03:03:25;;;;;;;9.20;5.90;;;;;;;18.07;100.00;98751.37;4408694;32;20550;-75
2022/06/04 03:05:58;;;;;;;10.98;5.07;;;;;;;18.05;100.00;98748.91;4421240;32;20089;-75
2022/06/04 03:08:27;;;;;;;8.15;5.80;;;;;;;18.06;100.00;98755.03;4420979;32;20129;-75
2022/06/04 03:10:55;;;;;;;11.98;6.35;;;;;;;18.05;100.00;98767.47;4421408;32;20164;-75
2022/06/04 03:13:22;;;;;;;9.00;6.40;;;;;;;17.99;100.00;98764.75;4421121;32;20106;-75
2022/06/04 03:15:49;;;;;;;10.00;6.93;;;;;;;17.96;100.00;98765.94;4421194;32;20143;-75
2022/06/04 03:18:18;;;;;;;12.45;7.20;;;;;;;18.04;100.00;98772.97;4421191;32;20117;-75
2022/06/04 03:20:46;;;;;;;12.68;8.38;;;;;;;17.98;100.00;98761.25;4421272;32;20613;-75
2022/06/04 03:23:15;;;;;;;10.95;7.32;;;;;;;18.04;100.00;98770.31;4421101;32;20599;-75
2022/06/04 03:25:42;;;;;;;12.93;7.53;;;;;;;18.09;100.00;98768.75;4421195;32;20620;-75
2022/06/04 03:28:10;;;;;;;12.50;8.05;;;;;;;18.08;100.00;98763.63;4421208;32;20098;-75
2022/06/04 03:30:38;;;;;;;13.23;8.25;;;;;;;18.14;100.00;98762.88;4419113;32;20144;-75
2022/06/04 03:33:07;;;;;;;11.52;6.78;;;;;;;18.13;100.00;98766.53;4405825;32;20098;-75
2022/06/04 03:35:35;;;;;;;10.85;7.03;;;;;;;18.15;100.00;98772.47;4454468;32;20081;-75
2022/06/04 03:38:02;;;;;;;10.95;5.85;;;;;;;18.19;100.00;98765.78;4469679;32;20536;-75
2022/06/04 03:40:30;;;;;;;13.93;6.95;;;;;;;18.25;100.00;98758.94;4470076;32;20484;-75
2022/06/04 03:42:58;;;;;;;10.93;6.03;;;;;;;18.21;100.00;98757.66;4470088;32;20088;-75
2022/06/04 03:45:26;;;;;;;12.68;7.80;;;;;;;18.20;100.00;98751.53;4470072;32;20165;-75
2022/06/04 03:47:55;;;;;;;14.48;7.72;;;;;;;18.27;100.00;98755.09;4469783;32;20112;-75
2022/06/04 03:50:25;;;;;;;11.65;7.05;;;;;;;18.26;100.00;98765.87;4469813;32;20112;-75
2022/06/04 03:52:53;;;;;;;15.10;7.93;;;;;;;18.31;100.00;98757.38;4469802;32;20160;-75
2022/06/04 03:55:20;;;;;;;14.02;8.00;;;;;;;18.22;100.00;98760.13;4470072;32;20080;-75
2022/06/04 03:57:49;;;;;;;14.10;8.45;;;;;;;18.22;100.00;98754.81;4469767;32;20109;-75
2022/06/04 04:00:24;;;;;;;11.68;6.95;;;;;;;18.21;100.00;98750.53;4469340;32;20534;-75
2022/06/04 04:02:55;;;;;;;15.02;7.65;;;;;;;18.19;100.00;98759.69;4469837;32;20488;-75
2022/06/04 04:05:25;;;;;;;15.77;7.50;;;;;;;18.24;100.00;98760.78;4469841;32;20073;-75
2022/06/04 04:07:54;;;;;;;13.82;7.50;;;;;;;18.23;100.00;98758.31;4469630;32;20154;-75
2022/06/04 04:10:22;;;;;;;14.43;7.43;;;;;;;18.16;100.00;98749.44;4469692;32;20108;-75
2022/06/04 04:12:50;;;;;;;12.57;6.97;;;;;;;18.22;100.00;98754.81;4469749;32;20088;-75
2022/06/04 04:15:18;;;;;;;17.87;6.70;;;;;;;18.12;100.00;98759.59;4469549;32;20105;-75
2022/06/04 04:17:46;;;;;;;12.05;6.93;;;;;;;18.04;100.00;98778.25;4469755;32;20162;-75
2022/06/04 04:20:25;;;;;;;17.30;7.70;;;;;;;17.93;100.00;98773.44;4469702;32;20145;-75
2022/06/04 04:22:53;;;;;;;15.43;8.13;;;;;;;17.91;100.00;98777.09;4469572;32;20108;-73
2022/06/04 04:25:22;;;;;;;27.67;10.65;;;;;;;17.76;100.00;98792.16;4469523;32;20101;-75
2022/06/04 04:27:49;;;;;;;19.17;8.77;;;;;;;17.72;100.00;98830.59;4469634;32;20097;-75
2022/06/04 04:30:20;;;;;;;18.62;8.98;;;;;;;17.66;100.00;98892.28;4469366;32;20389;-74
2022/06/04 04:32:48;;;;;;;16.37;7.30;;;;;;;17.60;100.00;98891.16;4469564;32;20080;-75
2022/06/04 04:35:19;;;;;;;19.85;7.78;;;;;;;17.62;100.00;98845.94;4469463;32;20111;-75
2022/06/04 04:37:47;;;;;;;15.05;7.75;;;;;;;17.58;100.00;98848.13;4469512;32;20153;-75
2022/06/04 04:40:15;;;;;;;10.38;6.20;;;;;;;17.58;100.00;98842.00;4469448;32;20104;-75
2022/06/04 04:42:43;;;;;;;13.68;6.75;;;;;;;17.57;100.00;98827.94;4469609;32;20123;-75
2022/06/04 04:45:11;;;;;;;17.08;6.80;;;;;;;17.61;100.00;98821.28;4469401;32;20149;-75
2022/06/04 04:47:39;;;;;;;15.93;8.02;;;;;;;17.61;100.00;98836.34;4469417;32;20108;-75
2022/06/04 04:50:13;;;;;;;17.45;7.70;;;;;;;17.69;100.00;98833.63;4469423;32;20115;-75
2022/06/04 04:52:41;;;;;;;15.93;8.43;;;;;;;17.61;100.00;98823.09;4469488;32;20451;-75
2022/06/04 04:55:08;;;;;;;22.60;8.40;;;;;;;17.48;100.00;98818.44;4469484;32;20105;-75
2022/06/04 04:57:35;;;;;;;19.08;8.73;;;;;;;17.45;100.00;98808.19;4469483;32;20097;-75
2022/06/04 05:00:05;;;;;;;15.52;8.50;;;;;;;17.52;100.00;98811.78;4469485;32;20131;-75
2022/06/04 05:02:32;;;;;;;15.63;9.30;;;;;;;17.58;100.00;98811.06;4469459;32;20100;-75
2022/06/04 05:04:59;;;;;;;18.20;8.90;;;;;;;17.58;100.00;98820.81;4469281;32;20552;-75
2022/06/04 05:07:27;;;;;;;21.92;9.85;;;;;;;17.62;100.00;98822.09;4469475;32;20096;-76
2022/06/04 05:09:54;;;;;;;21.20;9.60;;;;;;;17.69;100.00;98817.72;4469251;32;20088;-76
2022/06/04 05:12:21;;;;;;;14.63;9.65;;;;;;;17.69;100.00;98812.44;4468366;32;20133;-76
2022/06/04 05:14:49;;;;;;;18.12;9.70;;;;;;;17.76;100.00;98801.91;4469301;32;20104;-76
2022/06/04 05:17:16;;;;;;;19.00;10.48;;;;;;;17.84;100.00;98810.59;4469285;32;20119;-76
2022/06/04 05:19:47;;;;;;;22.30;10.95;;;;;;;17.82;100.00;98817.06;4469353;32;20145;-76
2022/06/04 05:22:14;;;;;;;20.40;11.25;;;;;;;17.70;100.00;98819.37;4469354;32;20456;-76
2022/06/04 05:24:43;;;;;;;16.55;10.30;;;;;;;17.76;100.00;98820.47;4468972;32;20114;-76
2022/06/04 05:27:10;;;;;;;18.27;9.52;;;;;;;17.76;100.00;98821.31;4469277;32;20093;-76
2022/06/04 05:29:38;;;;;;;13.40;8.52;;;;;;;17.90;100.00;98828.44;4464278;32;161943;-76
2022/06/04 05:32:07;;;;;;;13.77;8.73;;;;;;;17.98;100.00;98832.00;4480133;32;20096;-76
2022/06/04 05:34:34;;;;;;;11.93;8.73;;;;;;;18.02;100.00;98822.69;4484771;31;20093;-76
2022/06/04 05:37:02;;;;;;;12.98;7.50;;;;;;;18.15;100.00;98820.19;4484424;31;20138;-76
2022/06/04 05:39:32;;;;;;;12.37;7.07;;;;;;;17.97;100.00;98812.66;4484657;31;20096;-76
2022/06/04 05:42:00;;;;;;;10.60;6.45;;;;;;;17.99;100.00;98809.81;4484703;31;20085;-76
2022/06/04 05:44:28;;;;;;;11.70;5.30;;;;;;;17.97;100.00;98812.66;4484566;32;20081;-76
2022/06/04 05:46:56;;;;;;;10.70;5.60;;;;;;;17.95;100.00;98803.22;4484477;31;20477;-76
2022/06/04 05:49:23;;;;;;;6.55;5.12;;;;;;;17.87;100.00;98812.87;4484599;31;20127;-76
2022/06/04 05:51:51;;;;;;;6.90;5.22;;;;;;;17.89;100.00;98816.19;4484566;31;20096;-76
2022/06/04 05:54:19;;;;;;;7.32;5.45;;;;;;;17.87;100.00;98809.41;4484412;31;20728;-76
2022/06/04 05:56:47;;;;;;;7.22;4.65;;;;;;;17.79;100.00;98812.97;4484482;31;20476;-76
2022/06/04 05:59:17;;;;;;;7.82;4.78;;;;;;;17.80;100.00;98817.25;4484302;32;20100;-76
2022/06/04 06:01:45;;;;;;;6.57;4.40;;;;;;;17.72;100.00;98825.31;4484216;31;20088;-76
2022/06/04 06:04:14;;;;;;;9.30;5.20;;;;;;;17.74;100.00;98828.59;4484369;31;20450;-76
2022/06/04 06:06:45;;;;;;;8.20;5.72;;;;;;;17.67;100.00;98822.41;4484178;31;20481;-76
2022/06/04 06:09:14;;;;;;;12.00;6.22;;;;;;;17.70;100.00;98811.44;4484285;31;20114;-76
2022/06/04 06:11:42;;;;;;;11.32;7.05;;;;;;;17.79;100.00;98822.75;4484271;31;20184;-76
2022/06/04 06:14:10;;;;;;;9.45;7.65;;;;;;;17.78;100.00;98811.34;4484167;31;20156;-76
2022/06/04 06:16:40;;;;;;;11.43;7.87;;;;;;;17.77;100.00;98822.94;4484119;31;20101;-76
2022/06/04 06:19:08;;;;;;;11.55;7.35;;;;;;;17.74;100.00;98820.63;4484090;31;20097;-76
2022/06/04 06:21:36;;;;;;;11.40;7.85;;;;;;;17.83;100.00;98808.94;4484063;31;20461;-76
2022/06/04 06:24:05;;;;;;;13.57;7.70;;;;;;;17.90;100.00;98812.53;4484942;31;20149;-76
2022/06/04 06:26:35;;;;;;;11.70;7.35;;;;;;;17.91;100.00;98819.50;4485938;31;20443;-76
2022/06/04 06:29:04;;;;;;;13.20;7.25;;;;;;;17.94;100.00;98825.44;4486156;31;20104;-76
2022/06/04 06:31:32;;;;;;;14.68;7.45;;;;;;;17.93;100.00;98814.00;4475282;31;20448;-76
2022/06/04 06:34:00;;;;;;;9.95;6.87;;;;;;;17.83;100.00;98822.19;4485238;31;20144;-77
2022/06/04 06:36:28;;;;;;;15.38;7.18;;;;;;;17.87;100.00;98820.03;4481639;32;20100;-77
2022/06/04 06:38:56;;;;;;;10.00;6.97;;;;;;;17.81;100.00;98824.22;4485270;31;20538;-76
2022/06/04 06:41:24;;;;;;;10.27;6.68;;;;;;;17.84;100.00;98820.37;4485445;31;20160;-77
2022/06/04 06:43:51;;;;;;;9.98;6.70;;;;;;;17.86;100.00;98816.53;4485107;31;20176;-76
2022/06/04 06:46:19;;;;;;;8.60;6.97;;;;;;;17.82;100.00;98817.91;4484613;32;20104;-76
2022/06/04 06:48:49;;;;;;;16.45;7.07;;;;;;;17.92;100.00;98815.00;4484667;31;20112;-76
2022/06/04 06:51:26;;;;;;;10.55;6.97;;;;;;;17.91;100.00;98810.72;4482177;31;20092;-76
2022/06/04 06:53:56;;;;;;;9.07;7.20;;;;;;;18.04;100.00;98812.72;4484040;32;20428;-76
2022/06/04 06:56:30;;;;;;;12.70;8.40;;;;;;;17.93;100.00;98808.72;4483184;32;20469;-76
2022/06/04 06:58:59;;;;;;;16.77;8.05;;;;;;;18.04;100.00;98804.78;4485985;32;20145;-76
2022/06/04 07:01:26;;;;;;;19.35;7.95;;;;;;;18.10;100.00;98806.69;4485997;31;20455;-76
2022/06/04 07:03:55;;;;;;;11.57;7.93;;;;;;;18.14;100.00;98807.13;4485947;31;20084;-76
2022/06/04 07:06:43;;;;;;;11.88;8.55;;;;;;;18.11;100.00;98803.03;4484282;31;20127;-76
2022/06/04 07:09:18;;;;;;;13.30;8.60;;;;;;;18.09;100.00;98794.41;4484422;32;20152;-77
2022/06/04 07:11:46;;;;;;;13.13;8.60;;;;;;;18.15;100.00;98793.69;4485744;31;20107;-77
2022/06/04 07:14:13;;;;;;;14.75;8.20;;;;;;;18.20;100.00;98790.50;4485819;31;20141;-77
2022/06/04 07:16:42;;;;;;;13.62;8.18;;;;;;;18.44;100.00;98790.16;4485044;31;20096;-77
2022/06/04 07:19:14;;;;;;;12.80;8.60;;;;;;;18.78;100.00;98798.47;4485860;31;20472;-77
2022/06/04 07:21:41;;;;;;;13.25;7.60;;;;;;;18.95;100.00;98796.41;4485582;31;20136;-76
2022/06/04 07:24:09;;;;;;;11.93;6.90;;;;;;;19.42;100.00;98800.25;4485871;31;20084;-76
2022/06/04 07:26:38;;;;;;;10.30;6.47;;;;;;;19.50;100.00;98791.31;4485534;31;20096;-76
2022/06/04 07:29:05;;;;;;;10.05;7.12;;;;;;;19.82;100.00;98786.44;4485628;31;20096;-76
2022/06/04 07:31:33;;;;;;;10.52;6.32;;;;;;;20.30;100.00;98785.59;4485542;31;20115;-76
2022/06/04 07:34:00;;;;;;;9.38;5.68;;;;;;;20.39;100.00;98792.38;4485697;31;20545;-76
2022/06/04 07:36:33;;;;;;;10.25;6.30;;;;;;;20.56;100.00;98798.19;4484862;31;20103;-75
2022/06/04 07:39:02;;;;;;;11.82;6.57;;;;;;;20.77;100.00;98796.37;4485279;31;20087;-76
2022/06/04 07:41:32;;;;;;;9.65;6.07;;;;;;;20.61;100.00;98787.72;4485486;31;20110;-75
2022/06/04 07:44:00;;;;;;;9.38;7.47;;;;;;;20.59;100.00;98792.44;4485720;31;20089;-76
2022/06/04 07:46:29;;;;;;;8.50;6.43;;;;;;;20.39;100.00;98798.53;4485396;31;20535;-76
2022/06/04 07:49:00;;;;;;;9.55;6.82;;;;;;;20.64;100.00;98799.84;4485607;31;20100;-76
2022/06/04 07:51:28;;;;;;;9.93;6.93;;;;;;;20.54;100.00;98806.34;4482890;31;20159;-75
2022/06/04 07:53:56;;;;;;;8.57;6.93;;;;;;;20.61;100.00;98806.38;4483479;32;20149;-75
2022/06/04 07:56:23;;;;;;;9.77;6.97;;;;;;;20.92;100.00;98803.19;4483486;31;20165;-76
2022/06/04 07:58:51;;;;;;;9.90;6.93;;;;;;;21.16;100.00;98795.59;4484279;31;20819;-75
2022/06/04 08:01:20;;;;;;;8.20;6.78;;;;;;;21.28;100.00;98796.63;4484855;31;20084;-75
2022/06/04 08:03:49;;;;;;;10.10;6.78;;;;;;;21.44;100.00;98782.06;4484882;31;20101;-75
2022/06/04 08:06:18;;;;;;;9.23;6.85;;;;;;;21.59;100.00;98786.34;4483447;31;20115;-75
2022/06/04 08:08:46;;;;;;;7.85;6.30;;;;;;;21.85;100.00;98780.16;4483299;32;20160;-75
2022/06/04 08:11:32;;;;;;;9.20;6.18;;;;;;;21.87;100.00;98782.59;4483576;31;20104;-75
2022/06/04 08:14:07;;;;;;;7.03;6.05;;;;;;;21.94;100.00;98786.09;4483650;32;20092;-75
2022/06/04 08:16:41;;;;;;;8.35;6.87;;;;;;;21.99;100.00;98786.25;4483472;32;20496;-75
2022/06/04 08:19:08;;;;;;;9.88;6.05;;;;;;;22.02;100.00;98788.50;4483508;31;20076;-75
2022/06/04 08:21:37;;;;;;;7.68;4.97;;;;;;;22.23;100.00;98786.59;4484890;31;20096;-75
2022/06/04 08:24:05;;;;;;;5.22;4.53;;;;;;;22.46;100.00;98781.53;4484883;31;20111;-75
2022/06/04 08:26:32;;;;;;;4.32;3.87;;;;;;;22.82;100.00;98774.75;4484794;31;20515;-74
2022/06/04 08:28:59;;;;;;;4.80;3.80;;;;;;;23.07;98.40;98781.13;4485010;32;20584;-74
2022/06/04 08:31:27;;;;;;;5.30;4.18;;;;;;;23.23;96.37;98785.16;4484772;31;20508;-74
2022/06/04 08:33:55;;;;;;;4.80;4.20;;;;;;;23.21;94.24;98791.53;4484704;31;20097;-74
2022/06/04 08:36:22;;;;;;;7.70;4.93;;;;;;;23.14;95.91;98793.44;4484964;31;20112;-74
2022/06/04 08:38:49;;;;;;;9.85;4.37;;;;;;;22.91;96.82;98787.81;4484999;31;20096;-74
2022/06/04 08:41:38;;;;;;;6.03;3.80;;;;;;;22.76;97.92;98785.50;4484927;31;20115;-74
2022/06/04 08:44:36;;;;;;;5.90;3.92;;;;;;;22.68;97.11;98789.25;4484709;31;20084;-74
2022/06/04 08:47:44;;;;;;;5.85;4.00;;;;;;;22.59;98.44;98793.19;4478723;32;20130;-74
2022/06/04 08:50:19;;;;;;;8.55;4.25;;;;;;;22.62;97.14;98793.59;4484004;32;20092;-74
2022/06/04 08:52:52;;;;;;;5.30;4.18;;;;;;;22.39;96.97;98801.31;4485049;31;20103;-74
2022/06/04 08:58:46;;;;;;;5.68;4.00;;;;;;;22.50;98.67;98803.31;4484325;31;20482;-74
2022/06/04 09:01:25;;;;;;;4.35;3.80;;;;;;;22.70;97.69;98795.19;4483391;32;20146;-74
2022/06/04 09:04:24;;;;;;;5.53;4.03;;;;;;;22.92;96.18;98794.81;4484841;31;20092;-74
2022/06/04 09:07:12;;;;;;;5.85;3.95;;;;;;;23.00;97.49;98794.56;4483449;32;20127;-74
2022/06/04 09:10:04;;;;;;;5.57;4.47;;;;;;;22.97;95.85;98803.03;4484822;31;20105;-74
2022/06/04 09:12:42;;;;;;;5.95;3.78;;;;;;;22.73;97.96;98800.09;4435864;32;20159;-74
2022/06/04 09:15:19;;;;;;;4.78;3.70;;;;;;;22.13;100.00;98808.38;4435650;32;20089;-74
2022/06/04 09:17:50;;;;;;;3.50;3.20;;;;;;;21.97;100.00;98801.66;4435756;32;20521;-73
2022/06/04 09:20:39;;;;;;;6.32;3.62;;;;;;;21.74;100.00;98807.44;4435740;32;20121;-73
2022/06/04 09:23:22;;;;;;;6.40;2.75;;;;;;;21.75;100.00;98807.25;4423055;32;20466;-73
2022/06/04 09:26:12;;;;;;;5.95;2.50;;;;;;;22.14;100.00;98800.16;4435601;32;20077;-73
2022/06/04 09:28:55;;;;;;;4.95;2.35;;;;;;;22.33;99.36;98797.63;4435545;32;20081;-73
2022/06/04 09:31:56;;;;;;;6.18;2.53;;;;;;;22.32;96.91;98791.47;4429390;32;20133;-73
2022/06/04 09:34:26;;;;;;;4.70;2.00;;;;;;;22.27;95.14;98798.44;4412916;32;20136;-73
2022/06/04 09:36:53;;;;;;;5.40;2.08;;;;;;;22.61;97.26;98793.81;4429877;32;20368;-74
2022/06/04 09:39:27;;;;;;;3.85;2.30;;;;;;;22.72;91.37;98794.97;4433866;32;20113;-74
2022/06/04 09:41:58;;;;;;;3.70;2.22;;;;;;;22.27;92.44;98795.78;4433477;32;20627;-74
2022/06/04 09:44:28;;;;;;;3.17;2.30;;;;;;;22.44;94.54;98796.16;4433990;32;20129;-74
2022/06/04 09:47:25;;;;;;;3.75;1.80;;;;;;;22.69;92.17;98798.88;4422141;32;20097;-74
2022/06/04 09:49:59;;;;;;;2.15;1.92;;;;;;;22.79;90.48;98793.06;4391220;32;20149;-74
2022/06/04 09:52:55;;;;;;;4.30;1.45;;;;;;;23.11;90.55;98799.22;4419302;32;20173;-74
2022/06/04 09:55:25;;;;;;;2.05;1.10;;;;;;;23.21;90.04;98793.41;4406163;32;20255;-74
2022/06/04 09:58:03;;;;;;;2.12;0.90;;;;;;;23.07;83.57;98792.62;4416420;32;20544;-74
2022/06/04 10:00:39;;;;;;;5.30;1.42;;;;;;;22.94;82.96;98795.44;4421125;32;20483;-75
2022/06/04 10:03:15;;;;;;;3.67;1.50;;;;;;;23.13;84.96;98791.78;4420093;32;20126;-75
2022/06/04 10:05:50;;;;;;;4.10;1.25;;;;;;;23.41;85.60;98795.91;4421306;32;20159;-75
2022/06/04 10:08:21;;;;;;;3.22;1.02;;;;;;;23.71;79.75;98796.00;4420054;32;20573;-74
2022/06/04 10:10:49;;;;;;;3.87;1.25;;;;;;;23.86;82.92;98801.03;4420519;32;20321;-75
2022/06/04 10:16:35;;;;;;;1.90;1.25;;;;;;;23.95;82.28;98809.53;4410551;32;20097;-75
2022/06/04 10:19:17;;;;;;;1.93;1.07;;;;;;;23.91;80.35;98803.84;4412236;32;20159;-74
2022/06/04 10:21:50;;;;;;;1.98;1.25;;;;;;;23.60;78.45;98802.06;4422959;32;20105;-74
2022/06/04 10:24:23;;;;;;;3.05;1.17;;;;;;;23.78;75.34;98803.13;4408854;32;20121;-74
2022/06/04 10:27:03;;;;;;;2.33;1.00;;;;;;;24.14;73.82;98801.53;4438104;32;20172;-74
2022/06/04 10:29:57;;;;;;;3.67;1.65;;;;;;;24.19;72.91;98805.16;4478192;31;20127;-74
2022/06/04 10:32:31;;;;;;;3.40;1.40;;;;;;;24.09;72.59;98796.84;4480549;32;20104;-75
2022/06/04 10:35:35;;;;;;;3.92;1.67;;;;;;;23.68;75.05;98798.28;4483781;32;20153;-74
2022/06/04 10:38:16;;;;;;;1.52;1.20;;;;;;;23.63;78.32;98816.88;4484165;32;20130;-74
2022/06/04 10:40:52;;;;;;;2.67;1.48;;;;;;;23.40;78.32;98812.97;4484422;31;20084;-74
2022/06/04 10:43:55;;;;;;;2.30;1.55;;;;;;;23.84;79.56;98800.38;4484523;31;20096;-75
2022/06/04 10:46:25;;;;;;;2.03;1.30;;;;;;;23.90;77.68;98807.53;4484689;31;20079;-74
2022/06/04 10:49:02;;;;;;;4.85;1.40;;;;;;;23.88;77.46;98803.47;4485025;31;20083;-74
2022/06/04 10:52:17;;;;;;;1.92;1.40;;;;;;;23.59;78.00;98802.28;4486235;31;20077;-74
2022/06/04 10:55:12;;;;;;;2.80;1.50;;;;;;;24.06;76.79;98806.13;4421495;32;20106;-74
2022/06/04 10:58:04;;;;;;;3.95;2.00;;;;;;;24.12;76.06;98812.47;4408915;32;20129;-75
2022/06/04 11:00:45;;;;;;;4.18;1.60;;;;;;;24.07;79.18;98820.31;4416936;32;20172;-75
2022/06/04 11:03:19;;;;;;;2.72;1.77;;;;;;;24.01;76.49;98819.37;4420145;32;20197;-75
2022/06/04 11:05:53;;;;;;;2.45;1.60;;;;;;;24.11;78.37;98824.19;4420955;32;20625;-75
2022/06/04 11:08:25;;;;;;;2.17;1.83;;;;;;;24.03;74.17;98824.50;4420555;32;20101;-74
2022/06/04 11:11:02;;;;;;;6.60;1.87;;;;;;;24.69;75.05;98824.72;4419822;32;20818;-74
2022/06/04 11:13:37;;;;;;;2.87;2.00;;;;;;;24.09;74.34;98820.94;4420857;32;20124;-75
2022/06/04 11:16:09;;;;;;;2.33;1.55;;;;;;;24.05;73.77;98825.09;4417471;32;20098;-74
2022/06/04 11:18:46;;;;;;;5.78;1.62;;;;;;;24.57;72.22;98828.16;4418951;32;20455;-74
2022/06/04 11:21:19;;;;;;;5.62;2.05;;;;;;;24.51;72.77;98833.59;4414744;32;20166;-73
2022/06/04 11:23:56;;;;;;;2.57;2.37;;;;;;;24.69;74.28;98840.81;4420744;32;20245;-74
2022/06/04 11:26:39;;;;;;;3.33;1.92;;;;;;;24.90;71.87;98845.62;4420388;32;20089;-74
2022/06/04 11:29:08;;;;;;;2.95;1.83;;;;;;;24.62;71.30;98844.38;4419460;32;20132;-73
2022/06/04 11:31:47;;;;;;;1.95;1.60;;;;;;;24.07;73.02;98834.53;4457791;32;20121;-73
2022/06/04 11:34:51;;;;;;;1.73;1.60;;;;;;;24.37;71.36;98832.94;4477816;32;20147;-73
2022/06/04 11:37:45;;;;;;;3.58;1.80;;;;;;;24.84;71.27;98848.44;4485198;32;20122;-73
2022/06/04 11:40:12;;;;;;;2.80;1.95;;;;;;;24.53;72.01;98837.69;4470687;32;20101;-74
2022/06/04 11:42:56;;;;;;;6.75;2.22;;;;;;;24.45;72.18;98837.97;4485595;31;20096;-74
2022/06/04 11:45:23;;;;;;;2.50;2.20;;;;;;;24.38;74.23;98834.59;4484348;32;20111;-73
2022/06/04 11:48:32;;;;;;;3.72;2.15;;;;;;;24.54;75.04;98842.00;4485458;32;20141;-73
2022/06/04 11:51:37;;;;;;;2.53;2.12;;;;;;;24.42;75.60;98841.13;4432052;32;20098;-73
2022/06/04 11:54:11;;;;;;;1.92;1.65;;;;;;;24.69;73.76;98843.47;4414412;32;20102;-74
2022/06/04 11:56:45;;;;;;;;;;;;;;;24.84;73.70;98849.22;4421410;32;20668;-73
2022/06/04 11:59:34;;;;;;;1.92;1.70;;;;;;;25.04;71.19;98840.09;4432009;32;20459;-73
2022/06/04 12:02:13;;;;;;;2.35;2.15;;;;;;;24.54;70.49;98847.38;4435313;32;20124;-73
2022/06/04 12:05:17;;;;;;;5.12;2.17;;;;;;;24.46;70.56;98853.00;4436449;32;20170;-73
2022/06/04 12:07:52;;;;;;;2.05;1.73;;;;;;;24.14;73.12;98855.88;4436133;32;20132;-73
2022/06/04 12:10:24;;;;;;;3.80;1.98;;;;;;;24.78;71.68;98853.66;4424038;32;20170;-73